Time;durP1;ratioP1;P1;durP2;ratioP2;P2;SDS_P1;SDS_P2;PMS_P1;PMS_P2;Temp;Humidity;BMP_temperature;BMP_pressure;BME280_temperature;BME280_humidity;BME280_pressure;Samples;Min_cycle;Max_cycle;Signal;HPM_P1;HPM_P2
2023/07/17 00:02:06;;;;;;;9.80;0.85;;;;;;;15.30;46.83;101332.31;4965742;28;20072;-69
2023/07/17 00:04:35;;;;;;;7.55;1.40;;;;;;;15.30;47.09;101333.16;4969486;28;20096;-67
2023/07/17 00:07:01;;;;;;;2.90;0.60;;;;;;;15.24;47.37;101330.00;4969072;28;20496;-65
2023/07/17 00:09:33;;;;;;;6.03;0.98;;;;;;;15.21;47.28;101330.16;4966242;28;20046;-68
2023/07/17 00:11:58;;;;;;;2.90;1.30;;;;;;;15.24;47.42;101327.38;4970064;28;20037;-64
2023/07/17 00:14:24;;;;;;;3.75;0.85;;;;;;;15.21;47.52;101324.88;4954410;28;20078;-70
2023/07/17 00:16:49;;;;;;;4.60;0.70;;;;;;;15.22;47.37;101332.75;4960391;28;20038;-69
2023/07/17 00:19:17;;;;;;;4.65;0.90;;;;;;;15.17;47.80;101332.94;4960605;28;20082;-68
2023/07/17 00:21:43;;;;;;;4.00;0.47;;;;;;;15.15;47.60;101329.53;4969709;28;20062;-69
2023/07/17 00:24:08;;;;;;;1.98;0.60;;;;;;;15.07;47.79;101331.72;4965064;28;20049;-70
2023/07/17 00:26:34;;;;;;;5.72;0.90;;;;;;;15.07;47.84;101336.13;4969095;28;20625;-70
2023/07/17 00:29:20;;;;;;;3.90;0.73;;;;;;;15.00;48.13;101338.22;4968839;28;20133;-71
2023/07/17 00:31:55;;;;;;;4.53;0.43;;;;;;;14.99;48.18;101344.41;4984541;28;20045;-71
2023/07/17 00:34:20;;;;;;;3.70;0.40;;;;;;;14.96;48.61;101341.94;4965924;28;20037;-71
2023/07/17 00:36:47;;;;;;;7.88;0.70;;;;;;;14.92;48.52;101343.03;4968522;28;20544;-69
2023/07/17 00:39:16;;;;;;;4.68;0.85;;;;;;;14.92;48.68;101345.66;4963130;28;20089;-70
2023/07/17 00:41:41;;;;;;;7.35;0.80;;;;;;;14.87;49.21;101347.69;4959714;28;20143;-70
2023/07/17 00:44:06;;;;;;;7.13;0.63;;;;;;;14.89;48.87;101349.31;4966497;28;20057;-72
2023/07/17 00:46:36;;;;;;;4.38;0.93;;;;;;;14.92;48.72;101357.03;4966525;28;20054;-72
2023/07/17 00:49:05;;;;;;;;;;;;;;;14.86;49.37;101365.25;4968060;28;20070;-72
2023/07/17 00:51:31;;;;;;;5.93;0.70;;;;;;;14.58;50.61;101389.44;4966902;28;19920;-72
2023/07/17 00:53:57;;;;;;;7.20;1.50;;;;;;;13.47;54.69;101360.38;4967340;28;20050;-74
2023/07/17 00:56:25;;;;;;;5.30;1.08;;;;;;;13.60;53.73;101351.97;4967524;28;20369;-74
2023/07/17 00:58:52;;;;;;;10.95;2.30;;;;;;;13.39;55.71;101336.22;4979649;28;20679;-73
2023/07/17 01:01:28;;;;;;;8.32;1.23;;;;;;;13.42;56.09;101336.09;4968594;28;20889;-73
2023/07/17 01:03:55;;;;;;;8.63;1.15;;;;;;;13.45;55.89;101330.72;4949510;28;20042;-76
2023/07/17 01:06:21;;;;;;;7.47;1.45;;;;;;;13.48;55.97;101330.56;4960743;28;20143;-73
2023/07/17 01:08:47;;;;;;;6.45;1.55;;;;;;;13.42;56.49;101320.31;4982427;28;20096;-73
2023/07/17 01:11:13;;;;;;;5.22;0.90;;;;;;;13.33;56.56;101328.63;4968532;28;20038;-73
2023/07/17 01:13:46;;;;;;;9.45;1.25;;;;;;;13.43;57.00;101332.56;4962012;28;20050;-73
2023/07/17 01:16:15;;;;;;;4.40;1.15;;;;;;;13.46;56.69;101329.78;4967894;28;20062;-74
2023/07/17 01:18:43;;;;;;;6.38;1.45;;;;;;;13.57;56.40;101331.97;4967634;28;20049;-71
2023/07/17 01:21:12;;;;;;;4.32;1.02;;;;;;;13.46;56.46;101328.94;4970245;28;20248;-70
2023/07/17 01:23:38;;;;;;;6.80;1.50;;;;;;;13.39;57.03;101332.75;4963302;28;20066;-71
2023/07/17 01:26:13;;;;;;;8.10;0.93;;;;;;;13.35;57.04;101337.28;4948296;28;20038;-71
2023/07/17 01:28:39;;;;;;;7.22;1.88;;;;;;;13.33;57.21;101337.34;4946405;28;20047;-71
2023/07/17 01:31:04;;;;;;;5.90;1.67;;;;;;;13.36;57.43;101332.88;4949009;28;20064;-71
2023/07/17 01:33:30;;;;;;;5.45;1.10;;;;;;;13.44;57.73;101328.16;4928043;28;20564;-71
2023/07/17 01:35:56;;;;;;;6.47;1.30;;;;;;;13.52;57.30;101326.88;4944817;28;20027;-70
2023/07/17 01:38:21;;;;;;;13.27;1.88;;;;;;;13.61;57.13;101336.16;4945728;28;20053;-71
2023/07/17 01:40:47;;;;;;;3.45;1.05;;;;;;;13.65;57.14;101336.84;4947959;28;20070;-71
2023/07/17 01:43:12;;;;;;;7.68;1.73;;;;;;;13.60;56.93;101328.34;4946332;28;20030;-70
2023/07/17 01:45:43;;;;;;;3.30;0.90;;;;;;;13.52;56.96;101326.88;4945808;28;20051;-70
2023/07/17 01:48:10;;;;;;;10.27;1.52;;;;;;;13.45;57.14;101330.72;4962564;28;20519;-70
2023/07/17 01:50:36;;;;;;;6.57;1.00;;;;;;;13.51;57.06;101319.91;4962631;28;20046;-71
2023/07/17 01:53:02;;;;;;;4.90;1.13;;;;;;;13.58;57.38;101322.28;4955969;28;20039;-70
2023/07/17 01:55:28;;;;;;;12.35;1.35;;;;;;;13.55;57.35;101314.53;4965823;28;20042;-75
2023/07/17 01:57:57;;;;;;;8.23;1.17;;;;;;;13.61;57.28;101314.31;4955050;28;20615;-74
2023/07/17 02:00:23;;;;;;;5.05;0.90;;;;;;;13.73;57.07;101325.06;4959826;28;20065;-73
2023/07/17 02:02:48;;;;;;;6.50;2.05;;;;;;;13.83;56.69;101325.50;4933531;28;20374;-74
2023/07/17 02:05:14;;;;;;;8.23;1.48;;;;;;;13.86;56.56;101329.78;4950431;28;20077;-74
2023/07/17 02:07:40;;;;;;;6.82;1.42;;;;;;;13.84;56.71;101327.19;4951881;28;20046;-75
2023/07/17 02:10:07;;;;;;;8.85;1.85;;;;;;;13.82;56.41;101315.06;4968694;28;20045;-75
2023/07/17 02:12:33;;;;;;;4.93;1.40;;;;;;;13.79;56.92;101325.72;4965493;28;20284;-74
2023/07/17 02:14:59;;;;;;;4.05;1.67;;;;;;;13.63;57.07;101338.69;4953513;28;20468;-73
2023/07/17 02:17:24;;;;;;;5.30;1.63;;;;;;;13.22;58.29;101347.47;4964243;28;20041;-73
2023/07/17 02:19:50;;;;;;;5.65;1.75;;;;;;;13.49;57.69;101355.88;4949038;28;20092;-73
2023/07/17 02:22:15;;;;;;;4.85;1.67;;;;;;;13.48;57.91;101362.06;4961765;28;20127;-73
2023/07/17 02:24:41;;;;;;;4.15;2.17;;;;;;;13.57;57.43;101349.50;4950284;28;20034;-73
2023/07/17 02:27:07;;;;;;;9.48;2.75;;;;;;;13.25;58.24;101343.84;4946277;28;20031;-73
2023/07/17 02:29:32;;;;;;;5.18;1.60;;;;;;;13.40;57.68;101343.16;4958981;28;20090;-73
2023/07/17 02:31:58;;;;;;;4.15;1.50;;;;;;;13.47;57.29;101334.13;4950119;28;20061;-73
2023/07/17 02:34:24;;;;;;;10.48;2.22;;;;;;;13.44;57.77;101338.66;4940725;28;20031;-73
2023/07/17 02:36:52;;;;;;;3.83;2.05;;;;;;;13.58;57.39;101335.44;4931068;28;20043;-73
2023/07/17 02:39:18;;;;;;;5.43;1.90;;;;;;;13.53;57.46;101339.06;4964448;28;20307;-72
2023/07/17 02:41:44;;;;;;;8.10;2.13;;;;;;;13.30;58.12;101342.75;4967003;28;20045;-70
2023/07/17 02:44:09;;;;;;;5.25;2.50;;;;;;;13.60;57.63;101349.34;4967196;28;20034;-71
2023/07/17 02:46:35;;;;;;;4.82;1.70;;;;;;;13.50;57.52;101344.47;4946746;28;20684;-74
2023/07/17 02:49:00;;;;;;;6.75;2.05;;;;;;;13.33;57.89;101347.00;4977311;28;20038;-74
2023/07/17 02:51:27;;;;;;;3.47;1.50;;;;;;;13.37;57.58;101351.19;4959503;28;20023;-73
2023/07/17 02:53:52;;;;;;;5.63;2.22;;;;;;;13.25;57.82;101349.09;4965594;28;20112;-74
2023/07/17 02:56:18;;;;;;;6.38;1.77;;;;;;;13.05;58.18;101348.22;4965514;28;20523;-72
2023/07/17 02:58:48;;;;;;;7.97;1.98;;;;;;;13.35;57.43;101345.16;4951092;28;20345;-71
2023/07/17 03:01:16;;;;;;;3.90;1.63;;;;;;;13.30;57.08;101349.78;4981103;28;20034;-71
2023/07/17 03:03:41;;;;;;;7.47;1.50;;;;;;;13.11;57.66;101355.78;4966347;28;20041;-71
2023/07/17 03:06:07;;;;;;;5.90;1.40;;;;;;;13.17;57.49;101352.06;4965783;28;20027;-71
2023/07/17 03:08:32;;;;;;;4.80;1.33;;;;;;;13.34;57.02;101348.72;4960131;28;20563;-71
2023/07/17 03:11:03;;;;;;;4.82;1.58;;;;;;;13.38;56.68;101355.50;4972177;28;20152;-70
2023/07/17 03:13:28;;;;;;;6.05;1.73;;;;;;;13.16;57.14;101354.75;4956665;28;20034;-71
2023/07/17 03:15:56;;;;;;;3.88;1.63;;;;;;;13.37;56.56;101348.56;4968515;28;20061;-71
2023/07/17 03:18:21;;;;;;;3.70;1.30;;;;;;;13.39;56.50;101351.97;4948991;28;20030;-71
2023/07/17 03:20:47;;;;;;;7.38;1.58;;;;;;;13.50;56.29;101348.88;4965328;28;20175;-73
2023/07/17 03:23:12;;;;;;;5.97;1.67;;;;;;;13.52;56.28;101358.41;4958292;28;20041;-72
2023/07/17 03:25:41;;;;;;;9.43;2.83;;;;;;;13.24;56.86;101364.00;4961601;28;20500;-72
2023/07/17 03:28:06;;;;;;;4.28;1.85;;;;;;;13.28;57.11;101357.69;4955389;28;20046;-72
2023/07/17 03:30:35;;;;;;;4.88;2.00;;;;;;;13.22;57.23;101367.63;4939510;28;20156;-71
2023/07/17 03:33:01;;;;;;;8.20;1.52;;;;;;;13.32;56.94;101368.94;4969987;28;20167;-71
2023/07/17 03:35:27;;;;;;;9.32;1.45;;;;;;;13.45;56.45;101364.84;4950349;28;20116;-71
2023/07/17 03:37:52;;;;;;;8.32;1.70;;;;;;;13.58;56.17;101356.44;4965107;28;21831;-72
2023/07/17 03:40:18;;;;;;;7.97;1.98;;;;;;;13.26;57.32;101362.16;4949657;28;20046;-71
2023/07/17 03:42:44;;;;;;;8.43;1.42;;;;;;;13.36;56.98;101364.38;4952115;28;20522;-71
2023/07/17 03:45:09;;;;;;;7.93;1.30;;;;;;;12.99;57.63;101364.22;4946218;28;20474;-71
2023/07/17 03:47:37;;;;;;;4.95;1.48;;;;;;;13.05;57.59;101363.97;4940359;28;20042;-71
2023/07/17 03:50:02;;;;;;;5.57;2.22;;;;;;;13.28;56.81;101359.47;4966345;28;20516;-70
2023/07/17 03:52:31;;;;;;;5.78;1.65;;;;;;;13.29;56.55;101356.81;4933173;28;20744;-71
2023/07/17 03:54:56;;;;;;;4.20;1.13;;;;;;;13.41;56.12;101360.66;4958071;28;20476;-71
2023/07/17 03:57:22;;;;;;;5.50;1.20;;;;;;;13.27;55.87;101369.13;4958040;28;20372;-70
2023/07/17 03:59:53;;;;;;;9.32;1.52;;;;;;;13.03;56.56;101368.41;4960394;28;20497;-70
2023/07/17 04:02:27;;;;;;;5.38;0.98;;;;;;;13.11;55.99;101363.66;4942146;28;20569;-70
2023/07/17 04:04:53;;;;;;;8.98;1.75;;;;;;;12.93;56.01;101368.88;4946518;28;20298;-71
2023/07/17 04:07:21;;;;;;;3.90;1.17;;;;;;;12.99;55.55;101374.69;4945872;28;20348;-71
2023/07/17 04:09:46;;;;;;;3.28;0.88;;;;;;;12.79;55.71;101374.69;4974765;28;20039;-71
2023/07/17 04:12:12;;;;;;;7.75;1.08;;;;;;;12.40;56.65;101378.84;4951881;28;20023;-71
2023/07/17 04:14:38;;;;;;;8.30;1.60;;;;;;;12.80;55.75;101368.50;4962124;28;20114;-71
2023/07/17 04:17:05;;;;;;;5.95;1.13;;;;;;;13.01;55.03;101372.88;4947317;28;20250;-71
2023/07/17 04:19:31;;;;;;;6.72;0.98;;;;;;;13.05;54.86;101373.59;4962436;28;20510;-72
2023/07/17 04:21:57;;;;;;;3.83;0.85;;;;;;;12.80;55.01;101381.63;4950721;28;20540;-71
2023/07/17 04:24:23;;;;;;;2.33;0.77;;;;;;;13.13;54.53;101383.75;4952835;28;20553;-71
2023/07/17 04:26:50;;;;;;;4.55;1.15;;;;;;;12.94;54.84;101376.69;4952405;28;20037;-71
2023/07/17 04:29:16;;;;;;;2.45;0.60;;;;;;;13.27;53.74;101381.38;4948637;28;20496;-71
2023/07/17 04:31:42;;;;;;;4.53;1.33;;;;;;;13.30;53.65;101382.13;4948553;28;20046;-71
2023/07/17 04:34:09;;;;;;;2.47;0.88;;;;;;;13.31;53.75;101385.59;4949321;28;20031;-72
2023/07/17 04:36:35;;;;;;;3.83;0.68;;;;;;;13.06;53.88;101391.88;4940822;28;20046;-73
2023/07/17 04:39:04;;;;;;;3.30;0.60;;;;;;;13.31;53.48;101391.69;4962024;28;20512;-72
2023/07/17 04:41:31;;;;;;;1.30;0.60;;;;;;;13.36;53.27;101383.63;4984773;28;20073;-72
2023/07/17 04:43:57;;;;;;;2.97;0.50;;;;;;;12.93;54.20;101385.44;4937743;28;20101;-68
2023/07/17 04:46:23;;;;;;;4.50;1.25;;;;;;;13.24;53.41;101389.41;4943645;28;20115;-69
2023/07/17 04:48:49;;;;;;;8.77;1.55;;;;;;;13.07;53.66;101388.38;4976496;28;20905;-68
2023/07/17 04:51:15;;;;;;;5.25;0.75;;;;;;;13.44;52.63;101385.91;4947543;28;20026;-68
2023/07/17 04:53:41;;;;;;;6.72;0.68;;;;;;;13.12;53.60;101385.53;4947164;28;20047;-69
2023/07/17 04:56:06;;;;;;;3.88;1.00;;;;;;;13.55;52.72;101388.91;4951540;28;20041;-70
2023/07/17 04:58:32;;;;;;;6.00;0.82;;;;;;;13.56;52.98;101395.84;4933246;28;20045;-70
2023/07/17 05:01:00;;;;;;;4.93;0.80;;;;;;;13.33;53.24;101387.22;4948235;28;20045;-67
2023/07/17 05:03:27;;;;;;;4.22;1.42;;;;;;;13.31;52.51;101377.72;4939542;28;20042;-70
2023/07/17 05:05:57;;;;;;;5.80;1.20;;;;;;;13.04;52.84;101377.97;4963880;28;20035;-70
2023/07/17 05:08:25;;;;;;;6.18;0.80;;;;;;;15.05;49.89;101380.97;4980634;28;20035;-69
2023/07/17 05:10:58;;;;;;;1.80;0.68;;;;;;;16.07;45.96;101381.78;4964218;28;20501;-69
2023/07/17 05:13:29;;;;;;;3.30;0.85;;;;;;;17.80;43.23;101373.38;4964215;28;20038;-68
2023/07/17 05:15:56;;;;;;;4.53;0.98;;;;;;;18.50;42.00;101371.63;4952957;28;20053;-70
2023/07/17 05:18:21;;;;;;;3.88;0.60;;;;;;;18.18;40.46;101377.19;4954777;28;20502;-71
2023/07/17 05:20:49;;;;;;;4.20;0.55;;;;;;;18.88;39.73;101377.91;4935614;28;20289;-70
2023/07/17 05:23:17;;;;;;;6.13;1.02;;;;;;;18.55;40.46;101370.38;4957457;28;20097;-70
2023/07/17 05:25:55;;;;;;;6.03;0.45;;;;;;;18.48;39.84;101379.69;4935954;28;20190;-71
2023/07/17 05:28:22;;;;;;;4.90;0.68;;;;;;;18.80;39.95;101374.03;4925402;28;20513;-70
2023/07/17 05:30:56;;;;;;;4.32;0.80;;;;;;;20.08;37.98;101380.16;4950975;28;20031;-70
2023/07/17 05:33:22;;;;;;;2.38;0.30;;;;;;;20.13;36.81;101380.66;4950883;28;20096;-71
2023/07/17 05:35:49;;;;;;;5.82;0.68;;;;;;;18.74;39.21;101385.88;4968099;28;20038;-71
2023/07/17 05:38:15;;;;;;;7.53;0.88;;;;;;;19.19;38.39;101383.75;4950372;28;20045;-71
2023/07/17 05:40:41;;;;;;;2.85;0.57;;;;;;;20.28;37.26;101393.78;4961316;28;20076;-71
2023/07/17 05:43:08;;;;;;;8.60;0.73;;;;;;;19.07;38.23;101387.25;4969074;28;20038;-69
2023/07/17 05:45:37;;;;;;;4.38;1.02;;;;;;;18.78;39.33;101397.13;4957119;28;20125;-70
2023/07/17 05:48:02;;;;;;;6.18;1.38;;;;;;;18.64;39.89;101396.22;4955537;28;20461;-72
2023/07/17 05:50:28;;;;;;;5.20;0.70;;;;;;;18.83;39.92;101398.53;4946324;28;20159;-71
2023/07/17 05:52:53;;;;;;;3.80;0.65;;;;;;;20.22;36.90;101394.28;4951765;28;20872;-70
2023/07/17 05:55:19;;;;;;;5.07;0.82;;;;;;;21.62;35.05;101400.50;4964941;28;20030;-70
2023/07/17 05:57:45;;;;;;;3.72;0.82;;;;;;;21.59;34.49;101400.75;4967852;28;20565;-69
2023/07/17 06:00:14;;;;;;;11.82;0.98;;;;;;;21.51;35.61;101404.03;4965598;28;20033;-70
2023/07/17 06:02:42;;;;;;;4.82;0.65;;;;;;;22.36;33.37;101403.44;4961013;28;20324;-70
2023/07/17 06:05:10;;;;;;;8.15;0.73;;;;;;;20.90;35.67;101406.88;4932356;28;20317;-69
2023/07/17 06:07:37;;;;;;;4.68;0.93;;;;;;;20.80;36.45;101403.22;4947221;28;20360;-69
2023/07/17 06:10:07;;;;;;;3.15;0.50;;;;;;;20.63;36.24;101420.41;4970014;28;20116;-69
2023/07/17 06:12:33;;;;;;;8.75;0.82;;;;;;;21.22;36.40;101408.03;4962634;28;20418;-69
2023/07/17 06:15:01;;;;;;;3.15;0.50;;;;;;;18.99;38.70;101410.75;4966675;28;20041;-68
2023/07/17 06:17:27;;;;;;;6.05;1.05;;;;;;;20.91;37.49;101416.56;4939489;28;20054;-70
2023/07/17 06:19:52;;;;;;;7.32;1.35;;;;;;;22.67;33.88;101418.69;4943435;28;20139;-72
2023/07/17 06:22:18;;;;;;;4.82;0.60;;;;;;;23.39;31.86;101415.31;4960163;28;20069;-72
2023/07/17 06:24:46;;;;;;;4.22;1.02;;;;;;;23.31;31.73;101417.78;4948573;28;20077;-72
2023/07/17 06:27:11;;;;;;;5.55;0.40;;;;;;;22.15;33.42;101414.00;4949385;28;20049;-70
2023/07/17 06:29:36;;;;;;;5.75;0.50;;;;;;;23.29;31.62;101414.41;4941863;28;20045;-70
2023/07/17 06:32:02;;;;;;;13.15;1.40;;;;;;;22.36;34.38;101429.19;4964402;28;20069;-70
2023/07/17 06:34:27;;;;;;;11.48;1.40;;;;;;;21.08;34.65;101431.22;4962983;28;20046;-70
2023/07/17 06:36:55;;;;;;;6.85;1.73;;;;;;;21.36;35.09;101431.78;4963782;28;20030;-68
2023/07/17 06:39:20;;;;;;;5.85;0.93;;;;;;;20.59;35.78;101439.34;4965337;28;20037;-68
2023/07/17 06:41:46;;;;;;;5.80;0.90;;;;;;;21.14;34.81;101432.56;4960525;28;20467;-69
2023/07/17 06:44:12;;;;;;;6.00;0.93;;;;;;;19.50;37.82;101440.81;4965728;28;20320;-69
2023/07/17 06:46:38;;;;;;;4.97;1.23;;;;;;;19.62;37.11;101446.25;4963979;28;20046;-69
2023/07/17 06:49:03;;;;;;;5.22;0.90;;;;;;;19.17;39.24;101440.47;4946975;28;20612;-70
2023/07/17 06:51:29;;;;;;;9.70;1.60;;;;;;;18.40;40.66;101451.63;4945482;28;20154;-69
2023/07/17 06:53:54;;;;;;;7.60;1.33;;;;;;;19.27;38.92;101452.13;4962066;28;20132;-69
2023/07/17 06:56:20;;;;;;;2.53;0.43;;;;;;;21.37;35.20;101446.75;4968148;28;20527;-69
2023/07/17 06:58:46;;;;;;;7.22;1.30;;;;;;;20.96;36.46;101447.25;4949461;28;20034;-69
2023/07/17 07:01:14;;;;;;;3.42;0.82;;;;;;;20.36;36.32;101443.69;4945874;28;20058;-69
2023/07/17 07:03:40;;;;;;;8.93;1.00;;;;;;;19.61;37.67;101444.53;4951480;28;20046;-68
2023/07/17 07:06:09;;;;;;;3.50;1.13;;;;;;;20.29;37.88;101440.63;4964842;28;20034;-68
2023/07/17 07:08:34;;;;;;;8.23;1.60;;;;;;;20.19;37.41;101445.72;4939409;28;21219;-68
2023/07/17 07:11:02;;;;;;;6.97;1.23;;;;;;;21.84;35.33;101449.34;4947096;28;20561;-68
2023/07/17 07:13:29;;;;;;;5.47;1.30;;;;;;;22.05;32.87;101445.00;4950693;28;20042;-67
2023/07/17 07:15:55;;;;;;;7.00;1.17;;;;;;;22.52;33.62;101450.97;4963130;28;20034;-68
2023/07/17 07:18:21;;;;;;;4.80;1.25;;;;;;;21.98;33.96;101443.78;4962606;28;20096;-67
2023/07/17 07:20:48;;;;;;;6.95;1.73;;;;;;;22.67;32.20;101456.81;4961567;28;20043;-69
2023/07/17 07:23:16;;;;;;;8.20;0.95;;;;;;;23.36;31.03;101451.06;4957848;28;20140;-69
2023/07/17 07:25:42;;;;;;;6.50;1.50;;;;;;;22.44;33.01;101447.22;4966334;28;20034;-70
2023/07/17 07:28:08;;;;;;;6.47;1.83;;;;;;;22.77;32.89;101447.13;4946389;28;20043;-70
2023/07/17 07:30:34;;;;;;;7.78;0.93;;;;;;;22.48;32.86;101452.19;4941372;28;20043;-68
2023/07/17 07:33:02;;;;;;;4.53;1.00;;;;;;;21.13;33.26;101454.78;4942699;28;20252;-68
2023/07/17 07:35:27;;;;;;;6.88;2.08;;;;;;;18.49;38.27;101466.06;4944996;28;20093;-69
2023/07/17 07:37:53;;;;;;;9.40;1.17;;;;;;;19.64;36.62;101461.09;4939232;28;20054;-69
2023/07/17 07:40:21;;;;;;;6.15;1.33;;;;;;;19.28;37.08;101467.94;4942067;28;20030;-68
2023/07/17 07:42:47;;;;;;;6.25;1.42;;;;;;;18.94;38.47;101469.31;4941518;28;20058;-69
2023/07/17 07:45:16;;;;;;;6.63;1.40;;;;;;;20.52;36.58;101465.50;4945819;28;20034;-68
2023/07/17 07:47:45;;;;;;;7.95;1.67;;;;;;;21.04;35.35;101463.44;4945121;28;20388;-70
2023/07/17 07:50:11;;;;;;;7.22;1.45;;;;;;;22.09;33.09;101464.22;4945274;28;20120;-67
2023/07/17 07:52:36;;;;;;;8.88;1.13;;;;;;;22.58;31.36;101473.56;4949542;28;20058;-68
2023/07/17 07:55:04;;;;;;;7.78;1.42;;;;;;;24.39;30.01;101468.78;4965358;28;20577;-68
2023/07/17 07:57:30;;;;;;;7.68;0.90;;;;;;;23.53;30.73;101476.31;4962181;28;20105;-68
2023/07/17 07:59:58;;;;;;;5.35;2.28;;;;;;;23.04;30.84;101484.94;4945495;28;20393;-69
2023/07/17 08:02:23;;;;;;;7.43;1.35;;;;;;;23.56;29.87;101480.53;4953812;28;20304;-70
2023/07/17 08:04:49;;;;;;;6.85;1.33;;;;;;;22.41;32.36;101477.63;4967339;28;20033;-68
2023/07/17 08:07:15;;;;;;;7.15;1.35;;;;;;;21.05;33.78;101491.75;4959898;28;22099;-68
2023/07/17 08:09:40;;;;;;;8.10;0.90;;;;;;;20.31;35.33;101486.50;4960746;28;20046;-69
2023/07/17 08:12:06;;;;;;;6.53;1.55;;;;;;;20.94;34.08;101485.41;4963276;28;20122;-68
2023/07/17 08:14:32;;;;;;;4.32;1.65;;;;;;;21.79;33.05;101491.44;4965619;28;20033;-69
2023/07/17 08:16:58;;;;;;;5.75;1.67;;;;;;;21.02;34.44;101491.94;4966263;28;20034;-70
2023/07/17 08:19:24;;;;;;;5.53;1.08;;;;;;;17.89;39.59;101498.88;4965030;28;20054;-70
2023/07/17 08:21:49;;;;;;;6.38;1.20;;;;;;;19.13;38.46;101492.81;4967428;28;20402;-69
2023/07/17 08:24:18;;;;;;;11.32;2.20;;;;;;;19.07;37.95;101487.91;4967519;28;20026;-69
2023/07/17 08:26:44;;;;;;;6.55;1.25;;;;;;;19.97;35.81;101496.81;4968551;28;20061;-70
2023/07/17 08:29:10;;;;;;;9.77;2.22;;;;;;;18.39;38.65;101502.84;4978948;28;20058;-70
2023/07/17 08:31:36;;;;;;;4.25;1.70;;;;;;;17.92;39.39;101517.22;4963291;28;20733;-70
2023/07/17 08:34:03;;;;;;;9.25;1.48;;;;;;;14.94;48.99;101581.53;4965139;28;20034;-72
2023/07/17 08:36:30;;;;;;;2.28;0.63;;;;;;;13.19;53.40;101575.13;4960840;28;20030;-71
2023/07/17 08:38:55;;;;;;;2.42;0.52;;;;;;;12.18;55.53;101575.38;4964320;28;20042;-70
2023/07/17 08:41:21;;;;;;;2.47;0.30;;;;;;;12.22;55.87;101576.97;4964636;28;20553;-70
2023/07/17 08:43:48;;;;;;;5.65;0.75;;;;;;;12.23;54.88;101573.44;4960175;28;20057;-70
2023/07/17 08:46:14;;;;;;;1.58;0.32;;;;;;;12.12;55.97;101552.00;4950249;28;20026;-71
2023/07/17 08:48:44;;;;;;;1.88;0.30;;;;;;;12.14;56.23;101555.41;4956557;28;20532;-70
2023/07/17 08:51:11;;;;;;;1.77;0.40;;;;;;;12.34;55.33;101551.22;4965381;28;20065;-70
2023/07/17 08:53:42;;;;;;;1.88;0.40;;;;;;;12.75;54.98;101549.69;4947235;28;20531;-71
2023/07/17 08:56:08;;;;;;;0.77;0.30;;;;;;;13.32;54.32;101544.81;4963298;28;20382;-71
2023/07/17 08:58:37;;;;;;;2.17;0.45;;;;;;;14.17;51.96;101536.84;4944670;28;20042;-70
2023/07/17 09:01:03;;;;;;;2.85;0.43;;;;;;;17.17;48.42;101532.22;4947572;28;20466;-70
2023/07/17 09:03:32;;;;;;;1.60;0.45;;;;;;;17.06;45.52;101538.09;4922171;28;20619;-70
2023/07/17 09:06:03;;;;;;;2.13;0.55;;;;;;;16.29;45.74;101538.84;4961962;28;20242;-70
2023/07/17 09:08:29;;;;;;;3.05;0.40;;;;;;;16.27;46.99;101540.72;4949886;28;20054;-70
2023/07/17 09:11:08;;;;;;;5.18;0.60;;;;;;;16.27;47.01;101552.13;4945895;28;20034;-70
2023/07/17 09:13:42;;;;;;;1.52;0.40;;;;;;;16.12;47.11;101545.00;4941135;28;20078;-70
2023/07/17 09:16:22;;;;;;;4.50;0.38;;;;;;;16.10;47.26;101537.16;4945673;28;20060;-71
2023/07/17 09:18:50;;;;;;;6.57;1.10;;;;;;;16.53;46.86;101548.06;4944209;28;20043;-70
2023/07/17 09:21:19;;;;;;;5.28;0.90;;;;;;;17.19;46.65;101540.91;4942306;28;20084;-70
2023/07/17 09:23:50;;;;;;;1.70;0.30;;;;;;;16.31;47.16;101543.09;4956438;28;20050;-70
2023/07/17 09:26:20;;;;;;;1.10;0.50;;;;;;;17.14;47.07;101548.25;4954577;28;20042;-70
2023/07/17 09:28:46;;;;;;;6.07;0.60;;;;;;;17.99;44.07;101557.38;4947664;28;20125;-71
2023/07/17 09:31:11;;;;;;;1.80;0.47;;;;;;;19.73;41.11;101547.13;4947755;28;20061;-70
2023/07/17 09:33:37;;;;;;;3.38;0.77;;;;;;;18.98;39.17;101552.09;4956860;28;20133;-71
2023/07/17 09:36:03;;;;;;;5.53;0.73;;;;;;;18.87;40.91;101545.69;4961575;28;20038;-69
2023/07/17 09:38:31;;;;;;;2.63;0.47;;;;;;;18.64;41.46;101560.38;4963847;28;20133;-71
2023/07/17 09:40:57;;;;;;;2.25;0.70;;;;;;;19.51;43.18;101550.34;4963047;28;20452;-69
2023/07/17 09:43:33;;;;;;;7.75;0.88;;;;;;;19.18;42.16;101559.59;4963084;28;20034;-69
2023/07/17 09:46:02;;;;;;;4.57;0.85;;;;;;;19.52;41.28;101559.97;4966999;28;20038;-68
2023/07/17 09:48:28;;;;;;;8.60;1.52;;;;;;;21.22;40.68;101556.91;4961110;28;20073;-69
2023/07/17 09:50:59;;;;;;;5.53;1.00;;;;;;;21.24;37.75;101549.66;4967404;28;20031;-68
2023/07/17 09:53:26;;;;;;;3.35;1.70;;;;;;;21.00;39.14;101557.66;4958819;28;20126;-69
2023/07/17 09:55:52;;;;;;;2.83;1.20;;;;;;;20.91;38.47;101548.56;4969065;28;20242;-69
2023/07/17 09:58:23;;;;;;;6.53;0.85;;;;;;;20.61;39.33;101562.22;4964529;28;20046;-68
2023/07/17 10:00:53;;;;;;;4.22;0.77;;;;;;;19.82;39.54;101553.59;4962866;28;20118;-69
2023/07/17 10:03:21;;;;;;;4.85;1.55;;;;;;;20.12;40.26;101555.91;4978083;28;20507;-69
2023/07/17 10:05:47;;;;;;;7.18;1.58;;;;;;;19.80;40.63;101558.16;4966542;28;20035;-69
2023/07/17 10:08:15;;;;;;;4.30;1.20;;;;;;;18.98;40.28;101560.88;4957019;28;20436;-69
2023/07/17 10:10:41;;;;;;;4.78;1.63;;;;;;;18.05;43.72;101568.44;4963947;28;20106;-69
2023/07/17 10:13:08;;;;;;;5.85;1.52;;;;;;;17.63;45.64;101567.41;4965603;28;20042;-69
2023/07/17 10:15:35;;;;;;;7.90;1.50;;;;;;;16.91;48.49;101594.41;4962704;28;20258;-71
2023/07/17 10:18:01;;;;;;;9.10;2.05;;;;;;;15.86;51.90;101604.31;4964696;28;20311;-70
2023/07/17 10:20:32;;;;;;;5.70;1.42;;;;;;;15.74;52.89;101606.66;4958218;28;20567;-70
2023/07/17 10:23:00;;;;;;;7.35;1.05;;;;;;;15.64;52.13;101594.00;4952295;28;21172;-70
2023/07/17 10:25:30;;;;;;;5.90;1.10;;;;;;;15.82;51.46;101579.94;4945952;28;20026;-70
2023/07/17 10:28:05;;;;;;;4.90;0.90;;;;;;;17.15;48.27;101593.03;4944729;28;20038;-70
2023/07/17 10:30:31;;;;;;;3.90;0.93;;;;;;;17.18;49.44;101582.31;4943422;28;20121;-70
2023/07/17 10:33:13;;;;;;;3.38;1.00;;;;;;;18.18;46.25;101589.66;4927540;28;20066;-70
2023/07/17 10:35:42;;;;;;;9.00;1.33;;;;;;;18.82;45.44;101586.63;4940824;28;20034;-71
2023/07/17 10:38:09;;;;;;;5.47;2.08;;;;;;;18.64;45.49;101586.84;4939100;28;20479;-70
2023/07/17 10:40:35;;;;;;;8.20;2.63;;;;;;;20.10;44.17;101585.22;4938595;28;21248;-70
2023/07/17 10:43:17;;;;;;;4.72;1.20;;;;;;;20.13;42.15;101585.00;4945798;28;20055;-70
2023/07/17 10:45:44;;;;;;;4.03;1.05;;;;;;;19.99;41.22;101582.44;4946630;28;20043;-69
2023/07/17 10:48:10;;;;;;;4.03;0.70;;;;;;;20.94;41.17;101581.06;4953718;28;20082;-69
2023/07/17 10:50:38;;;;;;;3.97;1.40;;;;;;;21.52;40.87;101585.69;4942578;28;20093;-70
2023/07/17 10:53:09;;;;;;;6.32;1.00;;;;;;;20.63;39.58;101581.56;4946370;28;20027;-69
2023/07/17 10:55:35;;;;;;;5.00;1.02;;;;;;;21.53;40.96;101577.63;4942528;28;20121;-69
2023/07/17 10:58:01;;;;;;;3.05;0.80;;;;;;;21.30;37.99;101581.94;4956039;28;20042;-69
2023/07/17 11:00:27;;;;;;;2.63;1.00;;;;;;;20.42;40.91;101579.50;4961528;28;20647;-69
2023/07/17 11:02:56;;;;;;;7.15;1.40;;;;;;;20.87;41.85;101581.63;4974413;28;20412;-69
2023/07/17 11:05:22;;;;;;;5.45;1.42;;;;;;;21.22;38.86;101595.00;4962388;28;20026;-69
2023/07/17 11:07:50;;;;;;;7.10;0.90;;;;;;;20.12;38.66;101593.06;4962129;28;20069;-70
2023/07/17 11:10:19;;;;;;;5.60;1.00;;;;;;;19.47;40.54;101607.16;4962280;28;20579;-70
2023/07/17 11:12:45;;;;;;;5.03;1.17;;;;;;;19.92;39.09;101603.25;4963517;28;20069;-70
2023/07/17 11:15:16;;;;;;;8.48;1.02;;;;;;;20.64;38.56;101600.06;4955783;28;20421;-70
2023/07/17 11:17:41;;;;;;;1.98;0.38;;;;;;;20.06;38.19;101604.97;4936706;28;20050;-70
2023/07/17 11:20:07;;;;;;;8.85;0.95;;;;;;;20.64;38.95;101596.53;4953558;28;20404;-70
2023/07/17 11:22:34;;;;;;;3.30;0.93;;;;;;;21.47;35.99;101606.44;4958921;28;20449;-70
2023/07/17 11:25:00;;;;;;;3.50;0.90;;;;;;;21.31;34.18;101610.25;4967293;28;20042;-70